createdAt,value
2022-09-10T00:01:20.610Z,16.37
2022-09-10T00:03:49.062Z,16.37
2022-09-10T00:06:17.888Z,16.49
2022-09-10T00:08:46.012Z,16.34
2022-09-10T00:11:14.897Z,16.33
2022-09-10T00:13:43.084Z,16.40
2022-09-10T00:16:13.527Z,16.43
2022-09-10T00:18:41.060Z,16.31
2022-09-10T00:21:10.405Z,16.29
2022-09-10T00:23:37.475Z,16.18
2022-09-10T00:26:22.568Z,16.24
2022-09-10T00:28:50.612Z,16.20
2022-09-10T00:31:18.280Z,16.35
2022-09-10T00:33:45.103Z,16.34
2022-09-10T00:36:15.448Z,16.16
2022-09-10T00:38:41.854Z,16.23
2022-09-10T00:41:08.663Z,16.17
2022-09-10T00:43:55.179Z,16.20
2022-09-10T00:46:43.334Z,16.18
2022-09-10T00:49:28.829Z,15.96
2022-09-10T00:51:55.273Z,15.94
2022-09-10T00:54:25.059Z,15.87
2022-09-10T00:56:54.954Z,16.02
2022-09-10T00:59:26.167Z,16.07
2022-09-10T01:01:53.013Z,15.94
2022-09-10T01:04:20.038Z,15.91
2022-09-10T01:06:47.119Z,15.96
2022-09-10T01:09:14.385Z,16.01
2022-09-10T01:12:08.862Z,15.92
2022-09-10T01:14:54.708Z,15.77
2022-09-10T01:17:37.335Z,15.61
2022-09-10T01:20:41.006Z,15.64
2022-09-10T01:23:26.838Z,15.63
2022-09-10T01:26:11.763Z,15.80
2022-09-10T01:29:23.379Z,15.81
2022-09-10T01:31:55.521Z,15.68
2022-09-10T01:34:29.794Z,15.78
2022-09-10T01:37:03.791Z,15.77
2022-09-10T01:39:30.601Z,15.69
2022-09-10T01:41:59.013Z,15.69
2022-09-10T01:44:49.602Z,15.69
2022-09-10T01:47:45.896Z,15.73
2022-09-10T01:50:48.236Z,15.70
2022-09-10T01:53:44.770Z,15.71
2022-09-10T01:56:35.621Z,15.70
2022-09-10T01:59:34.453Z,15.54
2022-09-10T02:02:10.011Z,15.46
2022-09-10T02:04:37.631Z,15.47
2022-09-10T02:07:06.887Z,15.35
2022-09-10T02:09:33.568Z,15.40
2022-09-10T02:12:00.039Z,15.36
2022-09-10T02:14:49.767Z,15.27
2022-09-10T02:17:26.678Z,15.29
2022-09-10T02:19:54.377Z,15.28
2022-09-10T02:22:23.803Z,15.30
2022-09-10T02:24:51.551Z,15.23
2022-09-10T02:27:18.119Z,15.27
2022-09-10T02:29:44.658Z,15.40
2022-09-10T02:32:11.206Z,15.42
2022-09-10T02:34:37.684Z,15.43
2022-09-10T02:37:04.186Z,15.45
2022-09-10T02:39:30.965Z,15.32
2022-09-10T02:41:58.639Z,15.30
2022-09-10T02:44:28.190Z,15.27
2022-09-10T02:46:55.328Z,15.25
2022-09-10T02:49:21.832Z,15.29
2022-09-10T02:51:50.457Z,15.15
2022-09-10T02:54:19.931Z,15.08
2022-09-10T02:56:49.772Z,15.02
2022-09-10T02:59:17.889Z,15.01
2022-09-10T03:01:44.424Z,14.90
2022-09-10T03:04:11.004Z,14.89
2022-09-10T03:06:38.216Z,14.87
2022-09-10T03:09:04.691Z,14.86
2022-09-10T03:11:31.591Z,15.00
2022-09-10T03:13:58.508Z,14.90
2022-09-10T03:16:25.532Z,14.85
2022-09-10T03:18:52.290Z,14.86
2022-09-10T03:21:22.089Z,14.88
2022-09-10T03:23:50.488Z,14.83
2022-09-10T03:26:25.194Z,14.90
2022-09-10T03:28:52.507Z,14.89
2022-09-10T03:31:21.667Z,14.87
2022-09-10T03:33:51.031Z,14.94
2022-09-10T03:36:18.218Z,14.98
2022-09-10T03:38:45.771Z,14.92
2022-09-10T03:41:12.488Z,15.05
2022-09-10T03:43:39.116Z,14.92
2022-09-10T03:46:08.649Z,14.90
2022-09-10T03:48:39.644Z,14.99
2022-09-10T03:51:07.751Z,15.00
2022-09-10T03:53:34.644Z,15.00
2022-09-10T03:56:01.811Z,14.92
2022-09-10T03:58:28.666Z,14.86
2022-09-10T04:00:55.128Z,14.95
2022-09-10T04:03:22.230Z,14.86
2022-09-10T04:05:48.642Z,14.91
2022-09-10T04:08:15.337Z,14.85
2022-09-10T04:10:43.995Z,14.92
2022-09-10T04:13:11.338Z,14.95
2022-09-10T04:15:38.364Z,15.02
2022-09-10T04:18:06.043Z,15.06
2022-09-10T04:20:33.159Z,15.01
2022-09-10T04:23:05.657Z,14.90
2022-09-10T04:25:34.474Z,14.81
2022-09-10T04:28:01.863Z,14.74
2022-09-10T04:30:29.284Z,14.70
2022-09-10T04:32:55.800Z,14.75
2022-09-10T04:35:22.297Z,14.74
2022-09-10T04:37:48.935Z,14.64
2022-09-10T04:40:15.684Z,14.55
2022-09-10T04:42:42.263Z,14.38
2022-09-10T04:45:09.671Z,14.25
2022-09-10T04:47:36.197Z,14.20
2022-09-10T04:50:03.496Z,14.17
2022-09-10T04:52:29.996Z,14.13
2022-09-10T04:54:56.984Z,14.03
2022-09-10T04:57:25.913Z,13.91
2022-09-10T04:59:53.994Z,13.88
2022-09-10T05:02:21.359Z,13.90
2022-09-10T05:04:47.916Z,14.13
2022-09-10T05:07:14.852Z,14.04
2022-09-10T05:09:42.077Z,14.09
2022-09-10T05:12:08.504Z,14.22
2022-09-10T05:14:34.976Z,14.39
2022-09-10T05:17:03.203Z,14.43
2022-09-10T05:19:30.472Z,14.63
2022-09-10T05:22:02.726Z,14.80
2022-09-10T05:24:31.898Z,14.90
2022-09-10T05:26:59.528Z,14.81
2022-09-10T05:29:26.021Z,14.92
2022-09-10T05:31:52.554Z,15.07
2022-09-10T05:34:19.078Z,15.27
2022-09-10T05:36:45.544Z,15.36
2022-09-10T05:39:11.949Z,15.57
2022-09-10T05:41:38.475Z,15.53
2022-09-10T05:44:05.306Z,15.61
2022-09-10T05:46:32.983Z,15.65
2022-09-10T05:49:07.299Z,15.86
2022-09-10T05:51:34.340Z,16.00
2022-09-10T05:54:02.984Z,16.13
2022-09-10T05:56:31.740Z,16.33
2022-09-10T05:58:58.380Z,16.50
2022-09-10T06:01:25.624Z,16.62
2022-09-10T06:03:52.433Z,16.69
2022-09-10T06:06:19.573Z,16.51
2022-09-10T06:08:56.460Z,16.76
2022-09-10T06:11:34.361Z,17.00
2022-09-10T06:14:01.604Z,17.20
2022-09-10T06:16:28.379Z,17.32
2022-09-10T06:18:56.928Z,17.42
2022-09-10T06:21:28.302Z,17.39
2022-09-10T06:23:56.486Z,17.44
2022-09-10T06:26:25.558Z,17.44
2022-09-10T06:28:56.732Z,17.82
2022-09-10T06:31:23.530Z,17.90
2022-09-10T06:33:51.270Z,17.91
2022-09-10T06:36:20.531Z,17.89
2022-09-10T06:38:49.512Z,18.21
2022-09-10T06:41:17.068Z,18.30
2022-09-10T06:43:52.943Z,18.39
2022-09-10T06:49:19.398Z,18.66
2022-09-10T06:51:50.034Z,18.52
2022-09-10T06:54:17.662Z,18.91
2022-09-10T06:56:46.859Z,18.93
2022-09-10T06:59:14.721Z,18.94
2022-09-10T07:01:47.567Z,19.21
2022-09-10T07:04:14.798Z,19.21
2022-09-10T07:06:41.715Z,19.31
2022-09-10T07:09:10.783Z,19.49
2022-09-10T07:11:46.110Z,19.38
2022-09-10T07:14:14.137Z,19.73
2022-09-10T07:16:44.645Z,20.00
2022-09-10T07:19:17.341Z,20.17
2022-09-10T07:21:44.985Z,20.46
2022-09-10T07:24:14.422Z,20.02
2022-09-10T07:26:59.390Z,20.00
2022-09-10T07:29:25.959Z,20.10
2022-09-10T07:31:53.486Z,20.31
2022-09-10T07:34:23.054Z,20.33
2022-09-10T07:36:49.632Z,20.61
2022-09-10T07:39:21.304Z,20.30
2022-09-10T07:41:50.183Z,20.60
2022-09-10T07:44:19.665Z,20.93
2022-09-10T07:46:47.768Z,20.77
2022-09-10T07:49:16.174Z,20.63
2022-09-10T07:51:46.430Z,20.80
2022-09-10T07:54:15.896Z,20.89
2022-09-10T07:56:46.433Z,21.35
2022-09-10T07:59:15.123Z,21.08
2022-09-10T08:01:46.824Z,21.21
2022-09-10T08:04:16.175Z,20.96
2022-09-10T08:06:42.882Z,21.24
2022-09-10T08:09:09.414Z,21.80
2022-09-10T08:11:41.353Z,21.92
2022-09-10T08:14:10.873Z,22.10
2022-09-10T08:16:40.212Z,21.84
2022-09-10T08:19:13.851Z,22.08
2022-09-10T08:21:40.899Z,22.11
2022-09-10T08:24:08.652Z,21.88
2022-09-10T08:26:35.686Z,21.35
2022-09-10T08:29:04.415Z,21.44
2022-09-10T08:31:31.293Z,21.62
2022-09-10T08:34:06.658Z,22.12
2022-09-10T08:36:35.386Z,22.38
2022-09-10T08:39:06.290Z,22.54
2022-09-10T08:41:40.931Z,22.02
2022-09-10T08:44:29.007Z,22.21
2022-09-10T08:47:04.386Z,21.89
2022-09-10T08:49:42.189Z,22.39
2022-09-10T08:52:34.384Z,22.54
2022-09-10T08:55:04.397Z,22.63
2022-09-10T08:57:41.923Z,22.75
2022-09-10T09:00:14.836Z,22.75
2022-09-10T09:02:57.770Z,22.98
2022-09-10T09:05:28.533Z,23.47
2022-09-10T09:07:58.531Z,23.33
2022-09-10T09:10:50.116Z,23.36
2022-09-10T09:13:32.143Z,23.52
2022-09-10T09:16:12.873Z,23.60
2022-09-10T09:19:11.155Z,23.59
2022-09-10T09:21:46.825Z,23.53
2022-09-10T09:24:48.807Z,23.44
2022-09-10T09:27:17.989Z,23.24
2022-09-10T09:29:59.363Z,23.09
2022-09-10T09:32:28.716Z,23.25
2022-09-10T09:35:09.561Z,23.46
2022-09-10T09:37:37.870Z,23.51
2022-09-10T09:40:13.438Z,23.44
2022-09-10T09:42:54.100Z,23.53
2022-09-10T09:45:37.714Z,23.11
2022-09-10T09:48:06.583Z,22.94
2022-09-10T09:50:38.748Z,23.15
2022-09-10T09:53:05.184Z,23.01
2022-09-10T09:55:47.221Z,22.92
2022-09-10T09:58:24.089Z,23.21
2022-09-10T10:00:55.047Z,23.31
2022-09-10T10:03:29.062Z,23.02
2022-09-10T10:06:03.548Z,22.98
2022-09-10T10:08:34.054Z,23.01
2022-09-10T10:11:00.555Z,22.92
2022-09-10T10:13:38.994Z,22.61
2022-09-10T10:16:16.363Z,22.47
2022-09-10T10:18:44.124Z,22.40
2022-09-10T10:21:15.035Z,22.56
2022-09-10T10:23:41.944Z,22.51
2022-09-10T10:26:20.323Z,22.54
2022-09-10T10:28:50.304Z,22.55
2022-09-10T10:31:18.149Z,22.69
2022-09-10T10:34:03.488Z,22.78
2022-09-10T10:36:58.339Z,23.04
2022-09-10T10:39:55.426Z,23.30
2022-09-10T10:42:31.826Z,23.44
2022-09-10T10:45:18.255Z,23.87
2022-09-10T10:47:51.719Z,23.97
2022-09-10T10:50:28.558Z,24.09
2022-09-10T10:53:09.367Z,24.03
2022-09-10T10:55:45.279Z,23.76
2022-09-10T10:58:24.383Z,24.00
2022-09-10T11:00:57.596Z,23.63
2022-09-10T11:03:36.255Z,23.81
2022-09-10T11:06:10.759Z,24.27
2022-09-10T11:08:50.807Z,24.56
2022-09-10T11:11:23.895Z,24.37
2022-09-10T11:14:19.608Z,24.04
2022-09-10T11:16:55.316Z,23.56
2022-09-10T11:19:36.893Z,23.70
2022-09-10T11:22:13.980Z,23.67
2022-09-10T11:24:47.492Z,23.90
2022-09-10T11:27:29.860Z,24.43
2022-09-10T11:30:03.902Z,24.32
2022-09-10T11:32:38.242Z,24.04
2022-09-10T11:35:26.704Z,24.41
2022-09-10T11:38:20.610Z,24.74
2022-09-10T11:41:00.354Z,24.89
2022-09-10T11:43:43.532Z,25.04
2022-09-10T11:46:15.262Z,25.13
2022-09-10T11:49:03.588Z,25.05
2022-09-10T11:51:34.117Z,25.18
2022-09-10T11:54:03.590Z,25.09
2022-09-10T11:56:50.892Z,25.46
2022-09-10T11:59:27.088Z,25.04
2022-09-10T12:02:32.710Z,24.93
2022-09-10T12:05:07.748Z,25.22
2022-09-10T12:07:59.423Z,25.43
2022-09-10T12:10:35.319Z,25.48
2022-09-10T12:13:09.338Z,25.44
2022-09-10T12:15:37.775Z,25.81
2022-09-10T12:18:15.363Z,25.39
2022-09-10T12:20:52.283Z,25.19
2022-09-10T12:23:28.107Z,25.45
2022-09-10T12:25:59.810Z,25.52
2022-09-10T12:28:41.790Z,25.61
2022-09-10T12:31:10.610Z,25.78
2022-09-10T12:33:46.145Z,25.87
2022-09-10T12:36:14.836Z,26.01
2022-09-10T12:39:19.944Z,25.88
2022-09-10T12:41:46.279Z,25.78
2022-09-10T12:44:34.933Z,25.42
2022-09-10T12:47:28.884Z,25.11
2022-09-10T12:50:01.146Z,25.20
2022-09-10T12:52:45.108Z,25.29
2022-09-10T12:55:49.191Z,25.53
2022-09-10T12:58:43.840Z,24.57
2022-09-10T13:01:37.248Z,24.93
2022-09-10T13:04:03.886Z,24.83
2022-09-10T13:06:40.274Z,25.09
2022-09-10T13:09:19.883Z,25.37
2022-09-10T13:11:51.954Z,25.63
2022-09-10T13:14:28.899Z,25.25
2022-09-10T13:16:55.457Z,24.65
2022-09-10T13:19:21.788Z,24.73
2022-09-10T13:21:48.193Z,24.87
2022-09-10T13:24:33.813Z,24.55
2022-09-10T13:27:04.703Z,24.47
2022-09-10T13:29:38.401Z,24.28
2022-09-10T13:32:15.131Z,24.11
2022-09-10T13:35:08.291Z,24.17
2022-09-10T13:38:09.929Z,24.11
2022-09-10T13:41:02.585Z,24.32
2022-09-10T13:43:48.618Z,24.26
2022-09-10T13:46:28.279Z,24.10
2022-09-10T13:49:09.797Z,24.34
2022-09-10T13:51:54.172Z,24.54
2022-09-10T13:54:31.454Z,24.58
2022-09-10T13:57:04.457Z,24.21
2022-09-10T13:59:34.042Z,24.08
2022-09-10T14:02:00.461Z,24.08
2022-09-10T14:04:41.988Z,24.36
2022-09-10T14:07:26.890Z,24.62
2022-09-10T14:09:59.922Z,24.11
2022-09-10T14:12:35.685Z,23.99
2022-09-10T14:15:06.428Z,23.91
2022-09-10T14:17:41.367Z,23.77
2022-09-10T14:20:23.508Z,24.11
2022-09-10T14:22:58.738Z,23.87
2022-09-10T14:25:32.687Z,23.79
2022-09-10T14:28:20.677Z,24.13
2022-09-10T14:30:48.885Z,24.42
2022-09-10T14:33:32.298Z,24.22
2022-09-10T14:36:13.686Z,24.39
2022-09-10T14:38:42.415Z,24.52
2022-09-10T14:41:24.606Z,24.31
2022-09-10T14:44:15.561Z,24.21
2022-09-10T14:46:57.453Z,24.23
2022-09-10T14:49:29.688Z,24.15
2022-09-10T14:51:58.427Z,24.38
2022-09-10T14:54:26.335Z,24.47
2022-09-10T14:56:54.130Z,24.39
2022-09-10T14:59:38.760Z,24.27
2022-09-10T15:02:16.367Z,24.29
2022-09-10T15:04:42.856Z,24.04
2022-09-10T15:07:13.630Z,23.99
2022-09-10T15:09:40.927Z,24.02
2022-09-10T15:12:28.241Z,23.87
2022-09-10T15:14:55.138Z,24.03
2022-09-10T15:17:21.539Z,24.07
2022-09-10T15:19:48.591Z,24.06
2022-09-10T15:22:29.766Z,24.09
2022-09-10T15:25:12.304Z,23.95
2022-09-10T15:27:38.900Z,23.96
2022-09-10T15:30:06.267Z,23.97
2022-09-10T15:32:32.699Z,24.11
2022-09-10T15:34:59.159Z,23.76
2022-09-10T15:37:25.583Z,23.78
2022-09-10T15:39:52.724Z,23.95
2022-09-10T15:42:19.150Z,24.01
2022-09-10T15:44:45.538Z,23.84
2022-09-10T15:47:11.942Z,23.75
2022-09-10T15:49:38.352Z,23.85
2022-09-10T15:52:04.903Z,23.67
2022-09-10T15:54:31.290Z,23.91
2022-09-10T15:56:59.157Z,23.81
2022-09-10T15:59:25.538Z,23.90
2022-09-10T16:01:51.970Z,23.88
2022-09-10T16:04:18.371Z,23.49
2022-09-10T16:06:44.761Z,23.53
2022-09-10T16:09:12.997Z,23.65
2022-09-10T16:11:41.758Z,23.57
2022-09-10T16:14:11.815Z,23.40
2022-09-10T16:16:39.050Z,23.35
2022-09-10T16:19:05.872Z,23.10
2022-09-10T16:21:36.347Z,22.99
2022-09-10T16:24:04.623Z,22.86
2022-09-10T16:26:37.099Z,22.64
2022-09-10T16:29:12.497Z,22.55
2022-09-10T16:31:41.847Z,22.44
2022-09-10T16:34:11.556Z,22.48
2022-09-10T16:36:39.156Z,22.31
2022-09-10T16:39:12.125Z,22.41
2022-09-10T16:41:49.071Z,22.38
2022-09-10T16:44:17.462Z,22.36
2022-09-10T16:46:44.616Z,22.29
2022-09-10T16:49:15.107Z,22.34
2022-09-10T16:51:42.993Z,22.20
2022-09-10T16:54:09.485Z,22.29
2022-09-10T16:56:39.571Z,22.27
2022-09-10T16:59:07.912Z,22.14
2022-09-10T17:01:35.991Z,22.05
2022-09-10T17:04:03.640Z,21.99
2022-09-10T17:06:31.190Z,21.96
2022-09-10T17:08:59.562Z,21.92
2022-09-10T17:11:31.324Z,21.91
2022-09-10T17:13:59.230Z,21.93
2022-09-10T17:16:30.528Z,21.89
2022-09-10T17:19:04.335Z,21.91
2022-09-10T17:21:32.181Z,21.84
2022-09-10T17:23:59.254Z,21.71
2022-09-10T17:26:27.085Z,21.67
2022-09-10T17:28:58.668Z,21.63
2022-09-10T17:31:27.362Z,21.55
2022-09-10T17:33:53.869Z,21.47
2022-09-10T17:36:20.429Z,21.34
2022-09-10T17:38:47.276Z,21.32
2022-09-10T17:41:14.549Z,21.32
2022-09-10T17:43:42.924Z,21.20
2022-09-10T17:46:12.632Z,21.14
2022-09-10T17:48:39.186Z,21.23
2022-09-10T17:51:06.371Z,21.21
2022-09-10T17:53:34.232Z,21.10
2022-09-10T17:56:06.363Z,20.98
2022-09-10T17:58:33.544Z,20.96
2022-09-10T18:01:01.979Z,20.86
2022-09-10T18:03:28.921Z,20.84
2022-09-10T18:05:56.896Z,20.85
2022-09-10T18:08:23.291Z,20.71
2022-09-10T18:10:50.778Z,20.76
2022-09-10T18:13:19.394Z,20.79
2022-09-10T18:15:48.789Z,20.78
2022-09-10T18:18:15.472Z,20.66
2022-09-10T18:20:42.931Z,20.59
2022-09-10T18:23:09.733Z,20.63
2022-09-10T18:25:36.127Z,20.52
2022-09-10T18:28:03.098Z,20.51
2022-09-10T18:30:30.071Z,20.41
2022-09-10T18:32:56.505Z,20.37
2022-09-10T18:35:23.020Z,20.33
2022-09-10T18:37:52.579Z,20.23
2022-09-10T18:40:19.565Z,20.17
2022-09-10T18:42:47.678Z,20.13
2022-09-10T18:45:14.118Z,20.05
2022-09-10T18:47:44.975Z,20.02
2022-09-10T18:50:13.144Z,20.01
2022-09-10T18:52:39.629Z,19.90
2022-09-10T18:55:06.495Z,19.89
2022-09-10T18:57:32.951Z,19.78
2022-09-10T19:00:00.319Z,19.66
2022-09-10T19:02:27.351Z,19.62
2022-09-10T19:05:10.686Z,19.57
2022-09-10T19:07:38.160Z,19.57
2022-09-10T19:10:06.899Z,19.54
2022-09-10T19:12:33.583Z,19.43
2022-09-10T19:15:00.436Z,19.41
2022-09-10T19:17:26.839Z,19.35
2022-09-10T19:19:53.261Z,19.24
2022-09-10T19:22:19.668Z,19.14
2022-09-10T19:24:55.765Z,19.03
2022-09-10T19:27:23.963Z,18.99
2022-09-10T19:29:50.617Z,18.98
2022-09-10T19:32:19.433Z,19.00
2022-09-10T19:34:45.968Z,18.99
2022-09-10T19:37:12.877Z,19.03
2022-09-10T19:39:39.375Z,19.13
2022-09-10T19:42:06.753Z,19.07
2022-09-10T19:44:33.668Z,19.08
2022-09-10T19:47:00.144Z,18.95
2022-09-10T19:49:26.528Z,18.88
2022-09-10T19:51:54.104Z,18.77
2022-09-10T19:54:21.287Z,18.66
2022-09-10T19:56:47.676Z,18.49
2022-09-10T19:59:14.526Z,18.40
2022-09-10T20:01:42.604Z,18.46
2022-09-10T20:04:11.354Z,18.44
2022-09-10T20:06:38.829Z,18.42
2022-09-10T20:09:06.651Z,18.39
2022-09-10T20:11:35.035Z,18.30
2022-09-10T20:14:13.373Z,18.31
2022-09-10T20:16:43.213Z,18.32
2022-09-10T20:19:12.359Z,18.20
2022-09-10T20:21:38.891Z,18.13
2022-09-10T20:24:08.510Z,18.02
2022-09-10T20:26:43.735Z,17.94
2022-09-10T20:29:12.532Z,17.88
2022-09-10T20:31:41.229Z,17.86
2022-09-10T20:34:11.278Z,17.76
2022-09-10T20:36:43.642Z,17.70
2022-09-10T20:39:13.542Z,17.66
2022-09-10T20:41:40.209Z,17.54
2022-09-10T20:44:06.718Z,17.51
2022-09-10T20:46:34.381Z,17.52
2022-09-10T20:49:03.051Z,17.52
2022-09-10T20:51:35.112Z,17.43
2022-09-10T20:54:02.912Z,17.41
2022-09-10T20:56:29.370Z,17.48
2022-09-10T20:58:55.751Z,17.43
2022-09-10T21:01:24.965Z,17.38
2022-09-10T21:03:53.501Z,17.24
2022-09-10T21:06:24.352Z,17.01
2022-09-10T21:08:51.656Z,17.00
2022-09-10T21:11:20.638Z,16.90
2022-09-10T21:13:48.250Z,16.95
2022-09-10T21:16:29.660Z,16.95
2022-09-10T21:19:07.449Z,16.92
2022-09-10T21:21:35.528Z,16.97
2022-09-10T21:24:05.242Z,16.90
2022-09-10T21:26:34.259Z,16.89
2022-09-10T21:29:04.763Z,16.89
2022-09-10T21:31:31.723Z,16.84
2022-09-10T21:34:03.010Z,16.68
2022-09-10T21:36:31.389Z,16.67
2022-09-10T21:39:00.408Z,16.70
2022-09-10T21:41:31.649Z,16.65
2022-09-10T21:43:59.924Z,16.65
2022-09-10T21:46:27.503Z,16.61
2022-09-10T21:48:54.003Z,16.64
2022-09-10T21:51:21.762Z,16.67
2022-09-10T21:53:51.582Z,16.75
2022-09-10T21:56:18.030Z,16.75
2022-09-10T21:58:45.842Z,16.74
2022-09-10T22:01:15.584Z,16.66
2022-09-10T22:03:41.999Z,16.57
2022-09-10T22:06:14.486Z,16.43
2022-09-10T22:08:43.744Z,16.40
2022-09-10T22:11:23.912Z,16.42
2022-09-10T22:13:52.614Z,16.37
2022-09-10T22:16:20.404Z,16.39
2022-09-10T22:18:47.354Z,16.43
2022-09-10T22:21:14.237Z,16.41
2022-09-10T22:23:40.806Z,16.39
2022-09-10T22:26:11.147Z,16.36
2022-09-10T22:28:38.425Z,16.31
2022-09-10T22:31:29.413Z,16.33
2022-09-10T22:34:01.507Z,16.28
2022-09-10T22:36:36.558Z,16.21
2022-09-10T22:39:06.832Z,16.23
2022-09-10T22:41:35.299Z,16.19
2022-09-10T22:44:03.418Z,16.21
2022-09-10T22:46:30.402Z,16.24
2022-09-10T22:48:56.881Z,16.24
2022-09-10T22:51:28.772Z,16.22
2022-09-10T22:53:56.618Z,16.21
2022-09-10T22:56:26.211Z,16.09
2022-09-10T22:58:54.161Z,16.07
2022-09-10T23:01:23.067Z,16.10
2022-09-10T23:03:50.194Z,16.05
2022-09-10T23:06:19.806Z,16.13
2022-09-10T23:08:48.725Z,16.09
2022-09-10T23:11:23.843Z,16.18
2022-09-10T23:13:52.894Z,16.18
2022-09-10T23:16:40.828Z,16.23
2022-09-10T23:19:11.243Z,16.27
2022-09-10T23:21:41.223Z,16.30
2022-09-10T23:24:08.023Z,16.34
2022-09-10T23:26:34.403Z,16.35
2022-09-10T23:29:04.066Z,16.38
2022-09-10T23:31:32.833Z,16.32
2022-09-10T23:34:05.355Z,16.34
2022-09-10T23:36:34.807Z,16.29
2022-09-10T23:39:03.504Z,16.30
2022-09-10T23:41:29.979Z,16.33
2022-09-10T23:43:57.104Z,16.30
2022-09-10T23:46:23.789Z,16.29
2022-09-10T23:48:50.227Z,16.23
2022-09-10T23:51:19.494Z,16.25
2022-09-10T23:53:47.991Z,16.29
2022-09-10T23:56:16.790Z,16.35
2022-09-10T23:58:43.198Z,16.25
